Linda — OJML — position and weather

sailwx.info

Track history (hours):
 
Tides and Currents Weather Stations Pressure Air Temp Water Temp Dewpoint Dewpoint Depression Visibility Wind Speed Wind Dir Waves Ship Positions

Linda

Last reported at 2014-Sep-22 05:29 UTC. Time now 2014-Sep-22 06:13 UTC.
Position N 55°02' E 014°08'.

Length 141 m; draft 8.5 m.

Type: Ship (hazmat cat A). MMSI: 230984000.

Date/timePositionNaut miles runAvg speedWind from/ knotsBaromVisibWave heightAir tempDewpointWater temp
2014-Sep-22 05:29N 55°02' E 014°08'1515.9
2014-Sep-22 04:33N 54°56' E 013°45'1616.3
2014-Sep-22 03:33N 54°50' E 013°19'1716.6
2014-Sep-22 02:33N 54°44' E 012°52'1616.2
2014-Sep-22 01:33N 54°35' E 012°28'1616.2
2014-Sep-22 00:33N 54°25' E 012°07'1616.4
2014-Sep-21 23:33N 54°27' E 011°39'1817.6
2014-Sep-21 22:33N 54°34' E 011°11'75 7.4
2014-Sep-21 12:26N 53°59' E 009°17'4 2.8
2014-Sep-21 11:09N 53°56' E 009°13'4 5.8
2014-Sep-21 10:32N 53°54' E 009°09'0 0.0
2014-Sep-21 09:33N 53°54' E 009°09'2 2.0
2014-Sep-21 08:33N 53°53' E 009°06'9 8.7
2014-Sep-21 07:33N 53°50' E 008°52'1514.7
2014-Sep-21 06:33N 53°58' E 008°31'1615.9
2014-Sep-21 05:33N 53°59' E 008°04'6415.8
2014-Sep-21 01:31N 53°44' E 006°18'1515.3
2014-Sep-21 00:34N 53°40' E 005°55'1515.1
2014-Sep-20 23:34N 53°35' E 005°31'1514.9
2014-Sep-20 22:34N 53°30' E 005°07'1515.0
2014-Sep-20 21:33N 53°24' E 004°44'1814.7
2014-Sep-20 20:18N 53°07' E 004°31'1115.1
2014-Sep-20 19:34N 52°57' E 004°21'1515.2
2014-Sep-20 18:33N 52°45' E 004°06'1515.2
2014-Sep-20 17:33N 52°33' E 003°50'3515.7
2014-Sep-20 15:20N 52°03' E 003°24'1316.4
2014-Sep-20 14:33N 51°50' E 003°19'1414.2
2014-Sep-20 13:33N 51°36' E 003°23'1312.8
2014-Sep-20 12:33N 51°26' E 003°35'1010.5
2014-Sep-20 11:34N 51°20' E 003°49'3 3.2
2014-Sep-20 10:33N 51°17' E 003°50'5 5.4
2014-Sep-20 09:33N 51°12' E 003°48'2 2.1
2014-Sep-20 08:32N 51°10' E 003°47'0 0.0
2014-Sep-20 07:32N 51°10' E 003°47'0 0.0
2014-Sep-20 06:32N 51°10' E 003°47'0 0.0
2014-Sep-20 05:32N 51°10' E 003°47'0 0.0
2014-Sep-20 04:32N 51°10' E 003°47'0 0.0
2014-Sep-20 03:32N 51°10' E 003°47'0 0.0
2014-Sep-20 02:32N 51°10' E 003°47'0 0.0
2014-Sep-20 01:26N 51°10' E 003°47'0 0.0
2014-Sep-20 00:32N 51°10' E 003°47'0 0.0
2014-Sep-19 23:32N 51°10' E 003°47'0 0.0
2014-Sep-19 22:32N 51°10' E 003°47'0 0.0
2014-Sep-19 21:32N 51°10' E 003°47'0 0.0
2014-Sep-19 20:32N 51°10' E 003°47'0 0.0
2014-Sep-19 19:32N 51°10' E 003°47'0 0.0
2014-Sep-19 18:32N 51°10' E 003°47'0 0.0
2014-Sep-19 17:29N 51°10' E 003°47'0 0.0
2014-Sep-19 16:32N 51°10' E 003°47'0 0.0
2014-Sep-19 15:32N 51°10' E 003°47'0 0.0
2014-Sep-19 14:32N 51°10' E 003°47'0 0.0
2014-Sep-19 13:08N 51°10' E 003°47'0 0.0
2014-Sep-19 12:32N 51°10' E 003°47'0 0.0
2014-Sep-19 11:32N 51°10' E 003°47'0 0.0
2014-Sep-19 10:20N 51°10' E 003°47'0 0.0
2014-Sep-19 09:32N 51°10' E 003°47'0 0.0
2014-Sep-19 08:32N 51°10' E 003°47'0 0.0
2014-Sep-19 07:32N 51°10' E 003°47'0 0.0
2014-Sep-19 06:32N 51°10' E 003°47'0 0.0
2014-Sep-19 05:32N 51°10' E 003°47'0 0.0
2014-Sep-19 04:32N 51°10' E 003°47'0 0.0
2014-Sep-19 03:32N 51°10' E 003°47'0 0.0
2014-Sep-19 02:32N 51°10' E 003°47'0 0.0
2014-Sep-19 01:32N 51°10' E 003°47'0 0.0
2014-Sep-19 00:29N 51°10' E 003°47'0 0.0
2014-Sep-18 23:32N 51°10' E 003°47'0 0.0
2014-Sep-18 22:32N 51°10' E 003°47'0 0.0
2014-Sep-18 21:32N 51°10' E 003°47'0 0.0
2014-Sep-18 20:26N 51°10' E 003°47'0 0.0
2014-Sep-18 19:23N 51°10' E 003°47'0 0.0
2014-Sep-18 18:26N 51°10' E 003°47'0 0.0
2014-Sep-18 17:17N 51°10' E 003°47'0 0.0
2014-Sep-18 16:32N 51°10' E 003°47'0 0.0
2014-Sep-18 15:32N 51°10' E 003°47'0 0.0
2014-Sep-18 14:32N 51°10' E 003°47'1 1.5
2014-Sep-18 13:33N 51°11' E 003°48'7 7.2
2014-Sep-18 12:34N 51°18' E 003°50'2 2.0
2014-Sep-18 11:34N 51°20' E 003°49'1 1.3
2014-Sep-18 10:33N 51°21' E 003°48'1010.2
2014-Sep-18 09:34N 51°25' E 003°33'1818.1
2014-Sep-18 08:33N 51°24' E 003°04'1515.0
2014-Sep-18 07:33N 51°22' E 002°40'1717.0
2014-Sep-18 06:33N 51°19' E 002°13'1717.3
2014-Sep-18 05:34N 51°28' E 001°50'1515.3
2014-Sep-18 04:34N 51°27' E 001°26'1515.0
2014-Sep-18 03:33N 51°29' E 001°02'1111.2
2014-Sep-18 02:33N 51°26' E 000°44'0 0.0
2014-Sep-18 01:33N 51°26' E 000°44'0 0.0
2014-Sep-18 00:33N 51°26' E 000°44'0 0.0
2014-Sep-17 23:33N 51°26' E 000°44'0 0.0
2014-Sep-17 22:33N 51°26' E 000°44'0 0.0
2014-Sep-17 21:33N 51°26' E 000°44'0 0.0
2014-Sep-17 20:33N 51°26' E 000°44'0 0.0
2014-Sep-17 19:33N 51°26' E 000°44'0 0.0
2014-Sep-17 18:33N 51°26' E 000°44'2 2.0
2014-Sep-17 17:33N 51°28' E 000°47'1717.2
2014-Sep-17 16:34N 51°29' E 001°14'1514.5
2014-Sep-17 15:33N 51°31' E 001°38'1818.2
2014-Sep-17 14:33N 51°49' E 001°44'1919.1
2014-Sep-17 13:33N 52°08' E 001°48'1918.8
2014-Sep-17 12:33N 52°26' E 001°53'1817.9
2014-Sep-17 11:33N 52°44' E 001°55'1717.5
2014-Sep-17 10:33N 52°57' E 001°36'1717.1
2014-Sep-17 09:33N 53°11' E 001°20'3617.1
2014-Sep-17 07:28N 53°42' E 000°48'1517.0
2014-Sep-17 06:34N 53°53' E 000°30'1717.0
2014-Sep-17 05:33N 54°05' E 000°10'1716.9
2014-Sep-17 04:33N 54°17' W 000°10'1717.0
2014-Sep-17 03:33N 54°30' W 000°30'1716.9
2014-Sep-17 02:33N 54°39' W 000°54'9 2.9
2014-Sep-16 23:26N 54°36' W 001°09'0 0.0
2014-Sep-16 22:32N 54°36' W 001°09'0 0.0
2014-Sep-16 21:32N 54°36' W 001°09'0 0.0
2014-Sep-16 20:26N 54°36' W 001°09'0 0.0
2014-Sep-16 19:32N 54°36' W 001°09'0 0.0
2014-Sep-16 18:20N 54°36' W 001°09'0 0.0
2014-Sep-16 15:18N 54°36' W 001°09'10 5.5
2014-Sep-16 13:33N 54°38' W 000°53'1616.6
2014-Sep-16 12:33N 54°32' W 000°27'1616.2
2014-Sep-16 11:33N 54°30' E 000°01'1616.0
2014-Sep-16 10:33N 54°29' E 000°28'1615.9
2014-Sep-16 09:33N 54°28' E 000°56'1615.9
2014-Sep-16 08:33N 54°27' E 001°23'14716.3
2014-Sep-15 23:33N 54°15' E 005°34'1715.9
2014-Sep-15 22:30N 54°13' E 006°03'3416.7
2014-Sep-15 20:29N 54°12' E 007°00'1617.5
2014-Sep-15 19:33N 54°12' E 007°28'1817.6
2014-Sep-15 18:33N 54°05' E 007°56'1716.5
2014-Sep-15 17:33N 53°59' E 008°22'1515.1
2014-Sep-15 16:33N 53°52' E 008°44'1313.1
2014-Sep-15 15:34N 53°53' E 009°06'2 1.6
2014-Sep-15 14:34N 53°54' E 009°09'0 0.0
2014-Sep-15 13:34N 53°54' E 009°09'1 1.3
2014-Sep-15 12:33N 53°55' E 009°10'0 0.0
2014-Sep-15 11:34N 53°55' E 009°10'0 0.0
2014-Sep-15 10:34N 53°55' E 009°10'5 5.3
2014-Sep-15 09:34N 53°59' E 009°16'5 5.4
2014-Sep-15 08:33N 54°04' E 009°19'8 7.7
2014-Sep-15 07:33N 54°10' E 009°26'5 4.6
2014-Sep-15 06:33N 54°12' E 009°33'49 6.5
2014-Sep-14 23:06N 54°35' E 010°46'1017.4
2014-Sep-14 22:34N 54°36' E 011°03'1717.3
2014-Sep-14 21:34N 54°30' E 011°31'1716.8
2014-Sep-14 20:34N 54°26' E 011°59'1414.1
2014-Sep-14 19:34N 54°36' E 012°15'1716.6
2014-Sep-14 18:33N 54°46' E 012°39'1615.8
2014-Sep-14 17:34N 54°47' E 013°06'1616.3
2014-Sep-14 16:33N 54°46' E 013°35'1616.5
2014-Sep-14 15:33N 54°42' E 014°02'1616.2
2014-Sep-14 14:34N 54°39' E 014°29'1716.5
2014-Sep-14 13:34N 54°44' E 014°56'1616.5
2014-Sep-14 12:34N 54°50' E 015°23'1616.4
2014-Sep-14 11:33N 54°56' E 015°50'1615.5
2014-Sep-14 10:33N 55°02' E 016°15'1211.8
2014-Sep-14 09:33N 55°06' E 016°34'1616.2
2014-Sep-14 08:34N 55°10' E 017°01'1716.6
2014-Sep-14 07:33N 55°14' E 017°30'1716.7
2014-Sep-14 06:34N 55°18' E 017°58'1716.5
2014-Sep-14 05:33N 55°23' E 018°26'1716.5
2014-Sep-14 04:34N 55°27' E 018°54'1716.6
2014-Sep-14 03:33N 55°31' E 019°23'1716.6
2014-Sep-14 02:33N 55°35' E 019°51'1716.7
2014-Sep-14 01:33N 55°40' E 020°19'  
Track history (hours):
 
Tides and Currents Weather Stations Pressure Air Temp Water Temp Dewpoint Dewpoint Depression Visibility Wind Speed Wind Dir Waves Ship Positions

Linda

Last reported at 2014-Sep-22 05:29 UTC. Time now 2014-Sep-22 06:13 UTC.
Position N 55°02' E 014°08'.

Length 141 m; draft 8.5 m.

Type: Ship (hazmat cat A). MMSI: 230984000.

Date/timePositionNaut miles runAvg speedWind from/ knotsBaromVisibWave heightAir tempDewpointWater temp
2014-Sep-22 05:29N 55°02' E 014°08'1515.9
2014-Sep-22 04:33N 54°56' E 013°45'1616.3
2014-Sep-22 03:33N 54°50' E 013°19'1716.6
2014-Sep-22 02:33N 54°44' E 012°52'1616.2
2014-Sep-22 01:33N 54°35' E 012°28'1616.2
2014-Sep-22 00:33N 54°25' E 012°07'1616.4
2014-Sep-21 23:33N 54°27' E 011°39'1817.6
2014-Sep-21 22:33N 54°34' E 011°11'75 7.4
2014-Sep-21 12:26N 53°59' E 009°17'4 2.8
2014-Sep-21 11:09N 53°56' E 009°13'4 5.8
2014-Sep-21 10:32N 53°54' E 009°09'0 0.0
2014-Sep-21 09:33N 53°54' E 009°09'2 2.0
2014-Sep-21 08:33N 53°53' E 009°06'9 8.7
2014-Sep-21 07:33N 53°50' E 008°52'1514.7
2014-Sep-21 06:33N 53°58' E 008°31'1615.9
2014-Sep-21 05:33N 53°59' E 008°04'6415.8
2014-Sep-21 01:31N 53°44' E 006°18'1515.3
2014-Sep-21 00:34N 53°40' E 005°55'1515.1
2014-Sep-20 23:34N 53°35' E 005°31'1514.9
2014-Sep-20 22:34N 53°30' E 005°07'1515.0
2014-Sep-20 21:33N 53°24' E 004°44'1814.7
2014-Sep-20 20:18N 53°07' E 004°31'1115.1
2014-Sep-20 19:34N 52°57' E 004°21'1515.2
2014-Sep-20 18:33N 52°45' E 004°06'1515.2
2014-Sep-20 17:33N 52°33' E 003°50'3515.7
2014-Sep-20 15:20N 52°03' E 003°24'1316.4
2014-Sep-20 14:33N 51°50' E 003°19'1414.2
2014-Sep-20 13:33N 51°36' E 003°23'1312.8
2014-Sep-20 12:33N 51°26' E 003°35'1010.5
2014-Sep-20 11:34N 51°20' E 003°49'3 3.2
2014-Sep-20 10:33N 51°17' E 003°50'5 5.4
2014-Sep-20 09:33N 51°12' E 003°48'2 2.1
2014-Sep-20 08:32N 51°10' E 003°47'0 0.0
2014-Sep-20 07:32N 51°10' E 003°47'0 0.0
2014-Sep-20 06:32N 51°10' E 003°47'0 0.0
2014-Sep-20 05:32N 51°10' E 003°47'0 0.0
2014-Sep-20 04:32N 51°10' E 003°47'0 0.0
2014-Sep-20 03:32N 51°10' E 003°47'0 0.0
2014-Sep-20 02:32N 51°10' E 003°47'0 0.0
2014-Sep-20 01:26N 51°10' E 003°47'0 0.0
2014-Sep-20 00:32N 51°10' E 003°47'0 0.0
2014-Sep-19 23:32N 51°10' E 003°47'0 0.0
2014-Sep-19 22:32N 51°10' E 003°47'0 0.0
2014-Sep-19 21:32N 51°10' E 003°47'0 0.0
2014-Sep-19 20:32N 51°10' E 003°47'0 0.0
2014-Sep-19 19:32N 51°10' E 003°47'0 0.0
2014-Sep-19 18:32N 51°10' E 003°47'0 0.0
2014-Sep-19 17:29N 51°10' E 003°47'0 0.0
2014-Sep-19 16:32N 51°10' E 003°47'0 0.0
2014-Sep-19 15:32N 51°10' E 003°47'0 0.0
2014-Sep-19 14:32N 51°10' E 003°47'0 0.0
2014-Sep-19 13:08N 51°10' E 003°47'0 0.0
2014-Sep-19 12:32N 51°10' E 003°47'0 0.0
2014-Sep-19 11:32N 51°10' E 003°47'0 0.0
2014-Sep-19 10:20N 51°10' E 003°47'0 0.0
2014-Sep-19 09:32N 51°10' E 003°47'0 0.0
2014-Sep-19 08:32N 51°10' E 003°47'0 0.0
2014-Sep-19 07:32N 51°10' E 003°47'0 0.0
2014-Sep-19 06:32N 51°10' E 003°47'0 0.0
2014-Sep-19 05:32N 51°10' E 003°47'0 0.0
2014-Sep-19 04:32N 51°10' E 003°47'0 0.0
2014-Sep-19 03:32N 51°10' E 003°47'0 0.0
2014-Sep-19 02:32N 51°10' E 003°47'0 0.0
2014-Sep-19 01:32N 51°10' E 003°47'0 0.0
2014-Sep-19 00:29N 51°10' E 003°47'0 0.0
2014-Sep-18 23:32N 51°10' E 003°47'0 0.0
2014-Sep-18 22:32N 51°10' E 003°47'0 0.0
2014-Sep-18 21:32N 51°10' E 003°47'0 0.0
2014-Sep-18 20:26N 51°10' E 003°47'0 0.0
2014-Sep-18 19:23N 51°10' E 003°47'0 0.0
2014-Sep-18 18:26N 51°10' E 003°47'0 0.0
2014-Sep-18 17:17N 51°10' E 003°47'0 0.0
2014-Sep-18 16:32N 51°10' E 003°47'0 0.0
2014-Sep-18 15:32N 51°10' E 003°47'0 0.0
2014-Sep-18 14:32N 51°10' E 003°47'1 1.5
2014-Sep-18 13:33N 51°11' E 003°48'7 7.2
2014-Sep-18 12:34N 51°18' E 003°50'2 2.0
2014-Sep-18 11:34N 51°20' E 003°49'1 1.3
2014-Sep-18 10:33N 51°21' E 003°48'1010.2
2014-Sep-18 09:34N 51°25' E 003°33'1818.1
2014-Sep-18 08:33N 51°24' E 003°04'1515.0
2014-Sep-18 07:33N 51°22' E 002°40'1717.0
2014-Sep-18 06:33N 51°19' E 002°13'1717.3
2014-Sep-18 05:34N 51°28' E 001°50'1515.3
2014-Sep-18 04:34N 51°27' E 001°26'1515.0
2014-Sep-18 03:33N 51°29' E 001°02'1111.2
2014-Sep-18 02:33N 51°26' E 000°44'0 0.0
2014-Sep-18 01:33N 51°26' E 000°44'0 0.0
2014-Sep-18 00:33N 51°26' E 000°44'0 0.0
2014-Sep-17 23:33N 51°26' E 000°44'0 0.0
2014-Sep-17 22:33N 51°26' E 000°44'0 0.0
2014-Sep-17 21:33N 51°26' E 000°44'0 0.0
2014-Sep-17 20:33N 51°26' E 000°44'0 0.0
2014-Sep-17 19:33N 51°26' E 000°44'0 0.0
2014-Sep-17 18:33N 51°26' E 000°44'2 2.0
2014-Sep-17 17:33N 51°28' E 000°47'1717.2
2014-Sep-17 16:34N 51°29' E 001°14'1514.5
2014-Sep-17 15:33N 51°31' E 001°38'1818.2
2014-Sep-17 14:33N 51°49' E 001°44'1919.1
2014-Sep-17 13:33N 52°08' E 001°48'1918.8
2014-Sep-17 12:33N 52°26' E 001°53'1817.9
2014-Sep-17 11:33N 52°44' E 001°55'1717.5
2014-Sep-17 10:33N 52°57' E 001°36'1717.1
2014-Sep-17 09:33N 53°11' E 001°20'3617.1
2014-Sep-17 07:28N 53°42' E 000°48'1517.0
2014-Sep-17 06:34N 53°53' E 000°30'1717.0
2014-Sep-17 05:33N 54°05' E 000°10'1716.9
2014-Sep-17 04:33N 54°17' W 000°10'1717.0
2014-Sep-17 03:33N 54°30' W 000°30'1716.9
2014-Sep-17 02:33N 54°39' W 000°54'9 2.9
2014-Sep-16 23:26N 54°36' W 001°09'0 0.0
2014-Sep-16 22:32N 54°36' W 001°09'0 0.0
2014-Sep-16 21:32N 54°36' W 001°09'0 0.0
2014-Sep-16 20:26N 54°36' W 001°09'0 0.0
2014-Sep-16 19:32N 54°36' W 001°09'0 0.0
2014-Sep-16 18:20N 54°36' W 001°09'0 0.0
2014-Sep-16 15:18N 54°36' W 001°09'10 5.5
2014-Sep-16 13:33N 54°38' W 000°53'1616.6
2014-Sep-16 12:33N 54°32' W 000°27'1616.2
2014-Sep-16 11:33N 54°30' E 000°01'1616.0
2014-Sep-16 10:33N 54°29' E 000°28'1615.9
2014-Sep-16 09:33N 54°28' E 000°56'1615.9
2014-Sep-16 08:33N 54°27' E 001°23'14716.3
2014-Sep-15 23:33N 54°15' E 005°34'1715.9
2014-Sep-15 22:30N 54°13' E 006°03'3416.7
2014-Sep-15 20:29N 54°12' E 007°00'1617.5
2014-Sep-15 19:33N 54°12' E 007°28'1817.6
2014-Sep-15 18:33N 54°05' E 007°56'1716.5
2014-Sep-15 17:33N 53°59' E 008°22'1515.1
2014-Sep-15 16:33N 53°52' E 008°44'1313.1
2014-Sep-15 15:34N 53°53' E 009°06'2 1.6
2014-Sep-15 14:34N 53°54' E 009°09'0 0.0
2014-Sep-15 13:34N 53°54' E 009°09'1 1.3
2014-Sep-15 12:33N 53°55' E 009°10'0 0.0
2014-Sep-15 11:34N 53°55' E 009°10'0 0.0
2014-Sep-15 10:34N 53°55' E 009°10'5 5.3
2014-Sep-15 09:34N 53°59' E 009°16'5 5.4
2014-Sep-15 08:33N 54°04' E 009°19'8 7.7
2014-Sep-15 07:33N 54°10' E 009°26'5 4.6
2014-Sep-15 06:33N 54°12' E 009°33'49 6.5
2014-Sep-14 23:06N 54°35' E 010°46'1017.4
2014-Sep-14 22:34N 54°36' E 011°03'1717.3
2014-Sep-14 21:34N 54°30' E 011°31'1716.8
2014-Sep-14 20:34N 54°26' E 011°59'1414.1
2014-Sep-14 19:34N 54°36' E 012°15'1716.6
2014-Sep-14 18:33N 54°46' E 012°39'1615.8
2014-Sep-14 17:34N 54°47' E 013°06'1616.3
2014-Sep-14 16:33N 54°46' E 013°35'1616.5
2014-Sep-14 15:33N 54°42' E 014°02'1616.2
2014-Sep-14 14:34N 54°39' E 014°29'1716.5
2014-Sep-14 13:34N 54°44' E 014°56'1616.5
2014-Sep-14 12:34N 54°50' E 015°23'1616.4
2014-Sep-14 11:33N 54°56' E 015°50'1615.5
2014-Sep-14 10:33N 55°02' E 016°15'1211.8
2014-Sep-14 09:33N 55°06' E 016°34'1616.2
2014-Sep-14 08:34N 55°10' E 017°01'1716.6
2014-Sep-14 07:33N 55°14' E 017°30'1716.7
2014-Sep-14 06:34N 55°18' E 017°58'1716.5
2014-Sep-14 05:33N 55°23' E 018°26'1716.5
2014-Sep-14 04:34N 55°27' E 018°54'1716.6
2014-Sep-14 03:33N 55°31' E 019°23'1716.6
2014-Sep-14 02:33N 55°35' E 019°51'1716.7
2014-Sep-14 01:33N 55°40' E 020°19'  

Dump ship's entire track history